Time;durP1;ratioP1;P1;durP2;ratioP2;P2;SDS_P1;SDS_P2;PMS_P1;PMS_P2;Temp;Humidity;BMP_temperature;BMP_pressure;BME280_temperature;BME280_humidity;BME280_pressure;Samples;Min_cycle;Max_cycle;Signal;HPM_P1;HPM_P2
2021/06/22 00:02:09;;;;;;;12.30;3.22;;;;;;;;;;6237243;28;20045;-73
2021/06/22 00:05:11;;;;;;;12.57;3.13;;;;;;;;;;6246165;28;20140;-72
2021/06/22 00:08:13;;;;;;;12.82;3.05;;;;;;;;;;6238947;28;20755;-73
2021/06/22 00:11:14;;;;;;;17.65;4.82;;;;;;;;;;6238368;28;20482;-71
2021/06/22 00:14:16;;;;;;;11.27;3.22;;;;;;;;;;6237495;28;20038;-73
2021/06/22 00:17:20;;;;;;;12.30;3.00;;;;;;;;;;6241230;28;20050;-73
2021/06/22 00:20:22;;;;;;;18.35;3.60;;;;;;;;;;6242767;28;24146;-71
2021/06/22 00:23:24;;;;;;;12.07;3.33;;;;;;;;;;6239153;28;20050;-72
2021/06/22 00:26:26;;;;;;;11.68;3.20;;;;;;;;;;6243730;28;20057;-73
2021/06/22 00:29:27;;;;;;;16.75;3.97;;;;;;;;;;6242954;28;20132;-72
2021/06/22 00:32:30;;;;;;;9.45;2.75;;;;;;;;;;6233303;28;20138;-72
2021/06/22 00:35:32;;;;;;;14.68;3.10;;;;;;;;;;6234745;28;20158;-72
2021/06/22 00:38:34;;;;;;;13.43;3.60;;;;;;;;;;6236928;28;20057;-73
2021/06/22 00:41:36;;;;;;;13.30;3.47;;;;;;;;;;6235005;28;20054;-72
2021/06/22 00:44:45;;;;;;;17.33;3.60;;;;;;;;;;6232971;28;20054;-73
2021/06/22 00:47:48;;;;;;;10.93;3.80;;;;;;;;;;6239568;28;20108;-72
2021/06/22 00:50:50;;;;;;;15.35;4.25;;;;;;;;;;6233852;28;20170;-72
2021/06/22 00:53:52;;;;;;;11.48;3.38;;;;;;;;;;6237557;28;20092;-72
2021/06/22 00:56:54;;;;;;;20.15;3.45;;;;;;;;;;6242779;28;20052;-75
2021/06/22 00:59:58;;;;;;;13.50;3.97;;;;;;;;;;6238618;28;21338;-73
2021/06/22 01:03:02;;;;;;;14.63;4.13;;;;;;;;;;6234621;28;20741;-72
2021/06/22 01:06:04;;;;;;;12.48;4.00;;;;;;;;;;6234461;28;20096;-72
2021/06/22 01:09:06;;;;;;;12.95;3.63;;;;;;;;;;6551620;22;20666;-73
2021/06/22 01:12:27;;;;;;;17.13;3.72;;;;;;;;;;6252127;28;20132;-74
2021/06/22 01:15:31;;;;;;;12.35;3.40;;;;;;;;;;6254623;28;20049;-73
2021/06/22 01:18:34;;;;;;;13.95;4.43;;;;;;;;;;6257406;28;20073;-73
2021/06/22 01:21:40;;;;;;;12.52;3.95;;;;;;;;;;6255465;28;20045;-73
2021/06/22 01:24:42;;;;;;;16.23;3.92;;;;;;;;;;6255020;28;20413;-73
2021/06/22 01:27:44;;;;;;;13.88;3.67;;;;;;;;;;6256890;28;20404;-73
2021/06/22 01:30:46;;;;;;;13.73;3.72;;;;;;;;;;6257372;28;20057;-72
2021/06/22 01:33:48;;;;;;;17.55;4.05;;;;;;;;;;6254901;28;20045;-76
2021/06/22 01:36:52;;;;;;;14.15;3.80;;;;;;;;;;6258662;28;20498;-73
2021/06/22 01:39:54;;;;;;;11.85;3.28;;;;;;;;;;6255965;28;20056;-73
2021/06/22 01:42:58;;;;;;;11.70;3.08;;;;;;;;;;6254687;28;20064;-73
2021/06/22 01:45:59;;;;;;;13.48;3.58;;;;;;;;;;6255583;28;20441;-73
2021/06/22 01:49:01;;;;;;;15.95;3.53;;;;;;;;;;6257589;28;20052;-74
2021/06/22 01:52:05;;;;;;;8.93;3.13;;;;;;;;;;6255953;28;20049;-73
2021/06/22 01:58:27;;;;;;;11.25;3.03;;;;;;;;;;6256397;28;20128;-73
2021/06/22 02:01:30;;;;;;;12.30;3.65;;;;;;;;;;6256436;28;20127;-75
2021/06/22 02:04:31;;;;;;;13.02;3.35;;;;;;;;;;6258324;28;20079;-73
2021/06/22 02:07:35;;;;;;;17.85;3.80;;;;;;;;;;6252385;28;20037;-73
2021/06/22 02:10:36;;;;;;;7.70;2.95;;;;;;;;;;6279738;28;20064;-72
2021/06/22 02:13:38;;;;;;;11.18;3.58;;;;;;;;;;6279075;28;20131;-74
2021/06/22 02:16:40;;;;;;;11.30;2.80;;;;;;;;;;6285011;28;20515;-73
2021/06/22 02:19:42;;;;;;;12.63;3.03;;;;;;;;;;6277890;28;20072;-73
2021/06/22 02:22:45;;;;;;;11.20;3.58;;;;;;;;;;6284618;28;20040;-73
2021/06/22 02:25:47;;;;;;;12.60;3.45;;;;;;;;;;6290650;28;20071;-73
2021/06/22 02:28:49;;;;;;;11.13;2.60;;;;;;;;;;6293833;28;20052;-75
2021/06/22 02:31:51;;;;;;;8.02;3.15;;;;;;;;;;6295190;28;20515;-73
2021/06/22 02:34:52;;;;;;;13.95;3.58;;;;;;;;;;6284629;28;20051;-73
2021/06/22 02:37:56;;;;;;;10.25;3.10;;;;;;;;;;6290297;28;20049;-73
2021/06/22 02:40:57;;;;;;;10.88;2.90;;;;;;;;;;6289016;28;20107;-73
2021/06/22 02:43:59;;;;;;;10.25;3.38;;;;;;;;;;6289731;28;20045;-73
2021/06/22 02:47:01;;;;;;;11.63;3.08;;;;;;;;;;6295045;28;20058;-73
2021/06/22 02:50:09;;;;;;;8.25;3.15;;;;;;;;;;6290838;28;20050;-72
2021/06/22 02:53:13;;;;;;;10.43;2.92;;;;;;;;;;6291368;28;20044;-73
2021/06/22 02:56:15;;;;;;;12.90;3.40;;;;;;;;;;6287492;28;20098;-73
2021/06/22 02:59:17;;;;;;;7.78;3.05;;;;;;;;;;6283924;28;20415;-73
2021/06/22 03:02:19;;;;;;;10.13;2.92;;;;;;;;;;6286773;28;20056;-73
2021/06/22 03:05:21;;;;;;;10.35;2.97;;;;;;;;;;6277233;28;20053;-73
2021/06/22 03:08:24;;;;;;;8.93;2.92;;;;;;;;;;6278121;28;20056;-72
2021/06/22 03:11:26;;;;;;;7.55;2.92;;;;;;;;;;6272120;28;20137;-73
2021/06/22 03:14:28;;;;;;;7.72;3.00;;;;;;;;;;6281063;28;20059;-73
2021/06/22 03:17:30;;;;;;;9.57;3.63;;;;;;;;;;6277594;28;20057;-76
2021/06/22 03:20:32;;;;;;;8.45;2.80;;;;;;;;;;6279316;28;20060;-73
2021/06/22 03:23:35;;;;;;;9.48;3.20;;;;;;;;;;6272467;28;20092;-73
2021/06/22 03:26:37;;;;;;;8.35;3.42;;;;;;;;;;6264531;28;20053;-74
2021/06/22 03:29:39;;;;;;;7.63;2.72;;;;;;;;;;6274495;28;20059;-73
2021/06/22 03:32:43;;;;;;;7.35;2.97;;;;;;;;;;6279280;28;20049;-73
2021/06/22 03:35:45;;;;;;;10.50;3.25;;;;;;;;;;6279359;28;20040;-74
2021/06/22 03:38:48;;;;;;;7.60;3.00;;;;;;;;;;6278354;28;20052;-73
2021/06/22 03:41:50;;;;;;;11.20;2.85;;;;;;;;;;6274940;28;20090;-74
2021/06/22 03:44:52;;;;;;;15.43;3.20;;;;;;;;;;6275221;28;20041;-74
2021/06/22 03:47:55;;;;;;;10.85;3.55;;;;;;;;;;6292225;28;20403;-73
2021/06/22 03:50:56;;;;;;;8.15;2.65;;;;;;;;;;6287709;28;20041;-73
2021/06/22 03:54:00;;;;;;;9.07;2.83;;;;;;;;;;6286981;28;20059;-73
2021/06/22 03:57:02;;;;;;;8.77;3.00;;;;;;;;;;6276434;28;20068;-73
2021/06/22 04:00:04;;;;;;;8.15;2.53;;;;;;;;;;6285987;28;20074;-73
2021/06/22 04:03:06;;;;;;;9.25;3.13;;;;;;;;;;6280863;28;20063;-73
2021/06/22 04:06:08;;;;;;;7.05;2.63;;;;;;;;;;6279249;28;20048;-73
2021/06/22 04:09:11;;;;;;;8.60;3.03;;;;;;;;;;6284094;28;20057;-73
2021/06/22 04:12:13;;;;;;;9.52;2.67;;;;;;;;;;6279493;28;20044;-74
2021/06/22 04:15:16;;;;;;;7.97;2.40;;;;;;;;;;6277159;28;20055;-73
2021/06/22 04:18:18;;;;;;;10.68;4.13;;;;;;;;;;6278473;28;20036;-74
2021/06/22 04:21:20;;;;;;;8.48;3.30;;;;;;;;;;6275752;28;20080;-73
2021/06/22 04:24:23;;;;;;;13.45;3.28;;;;;;;;;;6279290;28;20060;-75
2021/06/22 04:27:25;;;;;;;7.00;2.85;;;;;;;;;;6283048;28;20665;-74
2021/06/22 04:30:26;;;;;;;7.22;2.60;;;;;;;;;;6284829;28;20068;-74
2021/06/22 04:33:28;;;;;;;8.32;2.70;;;;;;;;;;6284622;28;20057;-73
2021/06/22 04:36:30;;;;;;;7.47;2.90;;;;;;;;;;6256764;28;20060;-73
2021/06/22 04:39:34;;;;;;;7.43;2.95;;;;;;;;;;6280344;28;20080;-73
2021/06/22 04:42:35;;;;;;;;;;;;;;;;;;6280175;28;20187;-73
2021/06/22 04:45:37;;;;;;;6.95;3.53;;;;;;;;;;6287393;28;19925;-74
2021/06/22 04:48:39;;;;;;;10.77;3.13;;;;;;;;;;6281994;28;20056;-73
2021/06/22 04:51:41;;;;;;;12.07;2.78;;;;;;;;;;6278846;28;20056;-73
2021/06/22 04:54:44;;;;;;;12.70;2.85;;;;;;;;;;6281816;28;20087;-73
2021/06/22 04:57:47;;;;;;;10.57;3.15;;;;;;;;;;6280144;28;20507;-75
2021/06/22 05:00:58;;;;;;;9.30;3.63;;;;;;;;;;6276697;28;20040;-74
2021/06/22 05:04:01;;;;;;;11.05;3.00;;;;;;;;;;6280445;28;20049;-74
2021/06/22 05:07:03;;;;;;;7.67;2.70;;;;;;;;;;6282694;28;20082;-72
2021/06/22 05:10:08;;;;;;;9.33;2.90;;;;;;;;;;6280073;28;20063;-75
2021/06/22 05:13:10;;;;;;;11.25;3.35;;;;;;;;;;6283770;28;20087;-73
2021/06/22 05:16:12;;;;;;;6.97;2.80;;;;;;;;;;6276088;28;20068;-75
2021/06/22 05:19:14;;;;;;;9.30;2.80;;;;;;;;;;6280951;28;20040;-73
2021/06/22 05:22:16;;;;;;;10.02;3.10;;;;;;;;;;6281908;28;20056;-73
2021/06/22 05:25:19;;;;;;;8.40;2.83;;;;;;;;;;6279068;28;20059;-73
2021/06/22 05:28:21;;;;;;;8.60;2.80;;;;;;;;;;6281742;28;20087;-74
2021/06/22 05:31:23;;;;;;;8.10;2.65;;;;;;;;;;6278109;28;20408;-71
2021/06/22 05:34:25;;;;;;;7.53;2.33;;;;;;;;;;6279347;28;20055;-71
2021/06/22 05:37:27;;;;;;;9.57;2.75;;;;;;;;;;6278076;28;20036;-70
2021/06/22 05:40:30;;;;;;;7.30;2.75;;;;;;;;;;6269470;28;20763;-70
2021/06/22 05:43:33;;;;;;;8.00;3.15;;;;;;;;;;6282775;28;20098;-70
2021/06/22 05:46:35;;;;;;;;;;;;;;;;;;6277191;28;20385;-69
2021/06/22 05:49:36;;;;;;;11.05;2.72;;;;;;;;;;6278562;28;19928;-70
2021/06/22 05:52:48;;;;;;;;;;;;;;;;;;;;;
2021/06/22 05:55:53;;;;;;;10.93;2.60;;;;;;;;;;6275242;28;20122;-70
2021/06/22 05:58:55;;;;;;;10.43;2.92;;;;;;;;;;6267712;28;20049;-73
2021/06/22 06:01:57;;;;;;;21.05;3.88;;;;;;;;;;6277490;28;20067;-72
2021/06/22 06:04:59;;;;;;;11.65;2.53;;;;;;;;;;6279196;28;20048;-72
2021/06/22 06:08:01;;;;;;;9.35;2.97;;;;;;;;;;6277476;28;20044;-74
2021/06/22 06:11:05;;;;;;;13.73;4.05;;;;;;;;;;6285940;28;20040;-73
2021/06/22 06:14:07;;;;;;;6.75;2.17;;;;;;;;;;6287652;28;20049;-76
2021/06/22 06:17:09;;;;;;;9.95;2.92;;;;;;;;;;6283558;28;20047;-74
2021/06/22 06:20:13;;;;;;;7.40;2.90;;;;;;;;;;6285555;28;20056;-75
2021/06/22 06:23:15;;;;;;;10.65;2.80;;;;;;;;;;6287159;28;20059;-75
2021/06/22 06:26:19;;;;;;;8.85;3.03;;;;;;;;;;6283607;28;20048;-74
2021/06/22 06:29:28;;;;;;;6.70;2.50;;;;;;;;;;6284045;28;20059;-73
2021/06/22 06:32:30;;;;;;;10.27;3.30;;;;;;;;;;6289930;28;20583;-74
2021/06/22 06:35:32;;;;;;;8.65;2.90;;;;;;;;;;6284163;28;20063;-73
2021/06/22 06:38:34;;;;;;;9.40;2.70;;;;;;;;;;6283300;28;20041;-73
2021/06/22 06:41:37;;;;;;;6.63;2.55;;;;;;;;;;6274924;28;20057;-72
2021/06/22 06:47:54;;;;;;;9.77;3.13;;;;;;;;;;6283530;28;20379;-72
2021/06/22 06:50:56;;;;;;;8.18;2.60;;;;;;;;;;6284365;28;20067;-73
2021/06/22 06:53:58;;;;;;;7.95;2.90;;;;;;;;;;6281327;28;20052;-72
2021/06/22 06:57:02;;;;;;;6.63;2.53;;;;;;;;;;6275653;28;20104;-75
2021/06/22 07:00:05;;;;;;;6.97;2.45;;;;;;;;;;6277269;28;20045;-76
2021/06/22 07:03:08;;;;;;;10.48;3.15;;;;;;;;;;6273545;28;20053;-73
2021/06/22 07:06:10;;;;;;;8.65;2.72;;;;;;;;;;6276556;28;20059;-73
2021/06/22 07:09:12;;;;;;;8.20;2.83;;;;;;;;;;6281806;28;20108;-72
2021/06/22 07:12:18;;;;;;;6.18;2.63;;;;;;;;;;6273712;28;20138;-72
2021/06/22 07:15:21;;;;;;;9.10;2.63;;;;;;;;;;6270607;28;20049;-72
2021/06/22 07:18:23;;;;;;;16.25;3.17;;;;;;;;;;6271214;28;20059;-73
2021/06/22 07:21:25;;;;;;;15.68;3.13;;;;;;;;;;6278401;28;20099;-72
2021/06/22 07:24:27;;;;;;;12.55;3.55;;;;;;;;;;6281034;28;20113;-72
2021/06/22 07:27:30;;;;;;;6.72;2.90;;;;;;;;;;6285802;28;20061;-73
2021/06/22 07:30:32;;;;;;;9.63;3.13;;;;;;;;;;6277826;28;20162;-73
2021/06/22 07:33:34;;;;;;;8.80;3.13;;;;;;;;;;6287693;28;20135;-73
2021/06/22 07:36:36;;;;;;;10.40;2.85;;;;;;;;;;6279019;28;20408;-78
2021/06/22 07:39:40;;;;;;;6.53;2.97;;;;;;;;;;6279285;28;20052;-75
2021/06/22 07:42:44;;;;;;;10.00;2.72;;;;;;;;;;6285324;28;20044;-73
2021/06/22 07:45:45;;;;;;;11.45;3.40;;;;;;;;;;6285548;28;20045;-75
2021/06/22 07:48:47;;;;;;;14.30;3.00;;;;;;;;;;6287705;28;20080;-73
2021/06/22 07:51:53;;;;;;;11.90;3.23;;;;;;;;;;6286664;28;20047;-73
2021/06/22 07:55:14;;;;;;;8.30;3.03;;;;;;;;;;6259474;28;20581;-75
2021/06/22 07:59:23;;;;;;;9.07;2.72;;;;;;;;;;6256818;28;20049;-75
2021/06/22 08:02:38;;;;;;;6.35;2.90;;;;;;;;;;6287184;28;20052;-73
2021/06/22 08:13:38;;;;;;;9.95;3.00;;;;;;;;;;6216676;28;20092;-73
2021/06/22 09:49:01;;;;;;;7.45;2.83;;;;;;;;;;5902160;26;20048;-78
2021/06/22 09:52:07;;;;;;;11.02;2.92;;;;;;;;;;6172676;28;20058;-77
2021/06/22 10:04:37;;;;;;;9.48;2.38;;;;;;;;;;6118510;29;20060;-76
2021/06/22 10:07:41;;;;;;;5.78;2.38;;;;;;;;;;6105208;29;20072;-77
2021/06/22 10:34:33;;;;;;;9.02;2.90;;;;;;;;;;6168081;28;20398;-76
2021/06/22 10:41:29;;;;;;;8.40;2.60;;;;;;;;;;6086423;29;20560;-73
2021/06/22 10:44:52;;;;;;;8.50;2.90;;;;;;;;;;6156740;28;20528;-72
2021/06/22 10:52:03;;;;;;;8.10;2.97;;;;;;;;;;6175547;28;20042;-74
2021/06/22 11:03:24;;;;;;;9.18;2.42;;;;;;;;;;6167579;28;20055;-72
2021/06/22 11:48:38;;;;;;;10.07;2.47;;;;;;;;;;5982892;29;20062;-76
2021/06/22 11:52:26;;;;;;;7.38;2.40;;;;;;;;;;5975233;29;20057;-74
2021/06/22 12:24:04;;;;;;;7.10;2.45;;;;;;;;;;6080493;29;20079;-73
2021/06/22 12:27:31;;;;;;;5.22;2.63;;;;;;;;;;6078793;29;20045;-74
2021/06/22 12:31:17;;;;;;;9.30;2.30;;;;;;;;;;6097420;28;20107;-73
2021/06/22 12:49:40;;;;;;;8.45;2.50;;;;;;;;;;6010065;29;20065;-73
2021/06/22 12:56:31;;;;;;;4.47;1.80;;;;;;;;;;6123337;28;20043;-73
2021/06/22 12:59:45;;;;;;;6.03;1.70;;;;;;;;;;6166614;28;20051;-73
2021/06/22 13:10:25;;;;;;;5.38;1.88;;;;;;;;;;6070504;29;20536;-74
2021/06/22 13:24:52;;;;;;;4.72;1.80;;;;;;;;;;6147490;28;20534;-73
2021/06/22 13:28:09;;;;;;;8.32;2.20;;;;;;;;;;6136610;28;20044;-73
2021/06/22 13:31:14;;;;;;;5.63;1.90;;;;;;;;;;6139251;28;20058;-73
2021/06/22 13:54:33;;;;;;;6.82;1.88;;;;;;;;;;5926578;29;20050;-76
2021/06/22 14:07:00;;;;;;;6.53;2.15;;;;;;;;;;5973272;29;20054;-77
2021/06/22 14:59:41;;;;;;;8.43;2.67;;;;;;;;;;6020144;29;20049;-77
2021/06/22 15:02:46;;;;;;;6.32;2.08;;;;;;;;;;6049188;29;20048;-77
2021/06/22 15:05:48;;;;;;;8.52;2.08;;;;;;;;;;6127174;28;20135;-75
2021/06/22 15:08:51;;;;;;;;;;;;;;;;;;6141117;28;20136;-74
2021/06/22 15:11:56;;;;;;;8.40;2.08;;;;;;;;;;6138483;28;19962;-74
2021/06/22 15:14:59;;;;;;;7.88;2.60;;;;;;;;;;6141164;28;20059;-76
2021/06/22 15:18:02;;;;;;;6.57;1.95;;;;;;;;;;6135727;28;20504;-75
2021/06/22 15:21:05;;;;;;;9.65;2.85;;;;;;;;;;6128019;28;20157;-74
2021/06/22 15:24:07;;;;;;;3.97;1.98;;;;;;;;;;6136617;28;20119;-74
2021/06/22 15:27:09;;;;;;;;;;;;;;;;;;6138771;28;20070;-76
2021/06/22 15:38:22;;;;;;;7.75;1.98;;;;;;;;;;6051185;29;20056;-75
2021/06/22 15:41:24;;;;;;;7.40;1.90;;;;;;;;;;6049159;29;20124;-75
2021/06/22 15:44:26;;;;;;;5.40;1.85;;;;;;;;;;6051882;29;20528;-74
2021/06/22 15:51:34;;;;;;;5.38;2.17;;;;;;;;;;6050205;29;20106;-75
2021/06/22 15:54:40;;;;;;;8.40;2.38;;;;;;;;;;6077773;28;20047;-75
2021/06/22 15:57:45;;;;;;;7.85;1.80;;;;;;;;;;6139969;28;20796;-76
2021/06/22 16:00:47;;;;;;;6.38;2.10;;;;;;;;;;6139408;28;20073;-75
2021/06/22 16:03:52;;;;;;;9.88;2.60;;;;;;;;;;6145048;28;20052;-75
2021/06/22 16:06:54;;;;;;;8.15;2.45;;;;;;;;;;6139031;28;20479;-77
2021/06/22 16:09:57;;;;;;;4.93;2.20;;;;;;;;;;6149240;28;20046;-74
2021/06/22 16:12:59;;;;;;;7.28;2.17;;;;;;;;;;6150192;28;20043;-74
2021/06/22 16:16:01;;;;;;;7.78;2.28;;;;;;;;;;6140508;28;20055;-78
2021/06/22 16:19:04;;;;;;;7.17;2.40;;;;;;;;;;6133999;28;20102;-77
2021/06/22 16:22:06;;;;;;;8.88;2.20;;;;;;;;;;6144673;28;20046;-75
2021/06/22 16:25:12;;;;;;;4.43;2.30;;;;;;;;;;6143490;28;20411;-75
2021/06/22 16:28:20;;;;;;;5.53;2.05;;;;;;;;;;6139833;28;20074;-75
2021/06/22 16:31:23;;;;;;;6.07;2.55;;;;;;;;;;6137609;28;20067;-75
2021/06/22 16:34:24;;;;;;;7.82;2.88;;;;;;;;;;6142265;28;20535;-75
2021/06/22 16:37:29;;;;;;;7.55;2.40;;;;;;;;;;6134336;28;20047;-75
2021/06/22 16:40:32;;;;;;;8.00;2.80;;;;;;;;;;6142311;28;20051;-74
2021/06/22 16:43:34;;;;;;;7.70;2.10;;;;;;;;;;6142837;28;20059;-74
2021/06/22 16:46:39;;;;;;;9.33;2.20;;;;;;;;;;6140026;28;20071;-76
2021/06/22 16:49:40;;;;;;;10.45;2.83;;;;;;;;;;6140723;28;20059;-74
2021/06/22 16:52:42;;;;;;;10.40;2.60;;;;;;;;;;6146132;28;20054;-76
2021/06/22 16:55:46;;;;;;;9.10;1.90;;;;;;;;;;6135337;28;20082;-76
2021/06/22 16:58:48;;;;;;;11.82;1.85;;;;;;;;;;6141386;28;20051;-74
2021/06/22 17:02:24;;;;;;;4.83;2.10;;;;;;;;;;6140847;28;20067;-74
2021/06/22 17:05:36;;;;;;;;;;;;;;;;;;;;;
2021/06/22 17:08:45;;;;;;;4.75;1.70;;;;;;;;;;6137715;28;20142;-75
2021/06/22 17:19:47;;;;;;;4.93;1.73;;;;;;;;;;6041873;29;20533;-74
2021/06/22 17:22:49;;;;;;;7.68;2.10;;;;;;;;;;6129932;28;20090;-74
2021/06/22 17:25:58;;;;;;;5.75;2.05;;;;;;;;;;6140919;28;20043;-74
2021/06/22 17:29:12;;;;;;;6.47;1.92;;;;;;;;;;6139752;28;20119;-76
2021/06/22 17:32:14;;;;;;;6.95;1.83;;;;;;;;;;6135081;28;20052;-74
2021/06/22 17:35:21;;;;;;;5.20;1.95;;;;;;;;;;6160489;28;20085;-75
2021/06/22 17:38:53;;;;;;;4.60;2.58;;;;;;;;;;6142451;28;20055;-75
2021/06/22 17:41:55;;;;;;;4.80;2.30;;;;;;;;;;6132823;28;20047;-75
2021/06/22 17:56:53;;;;;;;4.57;1.83;;;;;;;;;;6129320;28;20052;-73
2021/06/22 17:59:55;;;;;;;3.88;1.80;;;;;;;;;;6160107;28;20039;-74
2021/06/22 18:03:01;;;;;;;4.77;1.90;;;;;;;;;;6130685;28;20162;-74
2021/06/22 18:09:19;;;;;;;3.80;1.80;;;;;;;;;;6112860;29;20044;-75
2021/06/22 18:12:23;;;;;;;4.60;1.70;;;;;;;;;;6128315;28;20063;-74
2021/06/22 18:15:26;;;;;;;5.93;1.73;;;;;;;;;;6140860;28;20070;-71
2021/06/22 18:18:28;;;;;;;3.75;1.40;;;;;;;;;;6133756;28;20075;-74
2021/06/22 18:25:22;;;;;;;13.43;2.03;;;;;;;;;;6088463;29;20390;-73
2021/06/22 18:28:40;;;;;;;13.25;2.15;;;;;;;;;;6102333;28;20051;-75
2021/06/22 18:31:42;;;;;;;6.10;1.65;;;;;;;;;;6145545;28;20048;-73
2021/06/22 18:34:46;;;;;;;8.82;1.80;;;;;;;;;;6144330;28;20055;-73
2021/06/22 18:37:50;;;;;;;3.42;1.80;;;;;;;;;;6152845;28;20106;-73
2021/06/22 18:40:53;;;;;;;2.67;1.50;;;;;;;;;;6143493;28;20051;-73
2021/06/22 18:43:56;;;;;;;3.90;1.92;;;;;;;;;;6134908;28;20054;-76
2021/06/22 18:46:59;;;;;;;4.18;1.70;;;;;;;;;;6147401;28;20066;-73
2021/06/22 18:50:01;;;;;;;7.87;1.67;;;;;;;;;;6136090;28;20095;-73
2021/06/22 18:53:05;;;;;;;7.72;1.77;;;;;;;;;;6143597;28;20051;-73
2021/06/22 18:56:10;;;;;;;4.00;1.70;;;;;;;;;;6142066;28;20050;-73
2021/06/22 18:59:13;;;;;;;13.35;4.40;;;;;;;;;;6118358;28;20052;-73
2021/06/22 19:02:15;;;;;;;18.63;9.48;;;;;;;;;;6147202;28;20792;-73
2021/06/22 19:05:18;;;;;;;5.43;2.90;;;;;;;;;;6147867;28;20153;-73
2021/06/22 19:08:20;;;;;;;4.25;2.30;;;;;;;;;;6138427;28;20059;-73
2021/06/22 19:11:22;;;;;;;7.47;2.97;;;;;;;;;;6130403;28;20051;-74
2021/06/22 19:14:33;;;;;;;8.73;3.17;;;;;;;;;;6131583;28;20062;-73
2021/06/22 19:17:35;;;;;;;9.98;3.88;;;;;;;;;;6129806;28;20059;-73
2021/06/22 19:20:38;;;;;;;18.75;4.03;;;;;;;;;;6133424;28;20051;-73
2021/06/22 19:23:39;;;;;;;4.68;2.80;;;;;;;;;;6121949;28;20055;-73
2021/06/22 19:26:42;;;;;;;5.78;2.50;;;;;;;;;;6126330;28;20047;-73
2021/06/22 19:29:48;;;;;;;7.57;2.40;;;;;;;;;;6162278;28;20063;-73
2021/06/22 19:32:50;;;;;;;10.40;2.47;;;;;;;;;;6119602;28;20059;-73
2021/06/22 19:35:52;;;;;;;6.03;2.73;;;;;;;;;;6160819;28;20075;-73
2021/06/22 19:39:27;;;;;;;5.63;2.63;;;;;;;;;;6136872;28;20133;-73
2021/06/22 19:42:34;;;;;;;5.22;2.40;;;;;;;;;;6061828;29;20117;-75
2021/06/22 19:45:38;;;;;;;8.60;2.33;;;;;;;;;;6065377;29;20544;-73
2021/06/22 19:48:40;;;;;;;8.15;2.60;;;;;;;;;;6076241;29;20068;-73
2021/06/22 19:51:42;;;;;;;5.23;2.53;;;;;;;;;;6129367;28;20055;-74
2021/06/22 19:58:22;;;;;;;4.95;2.47;;;;;;;;;;6109863;28;20415;-73
2021/06/22 20:01:25;;;;;;;5.05;2.60;;;;;;;;;;6125686;28;20057;-76
2021/06/22 20:04:29;;;;;;;7.32;2.47;;;;;;;;;;6127067;28;20055;-73
2021/06/22 20:07:41;;;;;;;4.82;2.33;;;;;;;;;;6125657;28;20040;-73
2021/06/22 20:10:46;;;;;;;11.73;2.40;;;;;;;;;;6132033;28;20134;-73
2021/06/22 20:13:48;;;;;;;6.25;3.10;;;;;;;;;;6134865;28;20055;-73
2021/06/22 20:17:01;;;;;;;7.95;2.40;;;;;;;;;;6118883;28;20062;-73
2021/06/22 20:20:05;;;;;;;6.03;2.50;;;;;;;;;;6130127;28;20058;-73
2021/06/22 20:23:07;;;;;;;6.00;3.25;;;;;;;;;;6122911;28;20043;-73
2021/06/22 20:26:09;;;;;;;7.35;2.88;;;;;;;;;;6130103;28;20063;-73
2021/06/22 20:33:30;;;;;;;9.05;3.00;;;;;;;;;;6140064;28;20126;-72
2021/06/22 20:39:47;;;;;;;3.80;2.55;;;;;;;;;;6130096;28;20044;-72
2021/06/22 20:46:55;;;;;;;8.55;2.97;;;;;;;;;;6129223;28;20051;-73
2021/06/22 20:49:58;;;;;;;8.00;2.65;;;;;;;;;;6125604;28;20051;-73
2021/06/22 20:53:00;;;;;;;11.13;2.90;;;;;;;;;;6126027;28;20117;-74
2021/06/22 20:59:18;;;;;;;8.25;3.20;;;;;;;;;;6126634;28;20062;-74
2021/06/22 21:06:17;;;;;;;6.00;2.85;;;;;;;;;;6089936;28;20051;-73
2021/06/22 21:13:30;;;;;;;22.75;4.35;;;;;;;;;;6135300;28;20047;-72
2021/06/22 21:16:32;;;;;;;;;;;;;;;;;;6110809;28;20070;-73
2021/06/22 21:19:35;;;;;;;15.82;3.25;;;;;;;;;;6144858;28;19926;-75
2021/06/22 21:22:39;;;;;;;4.18;2.40;;;;;;;;;;6142987;28;20048;-73
2021/06/22 21:25:42;;;;;;;10.27;3.63;;;;;;;;;;6134283;28;20059;-73
2021/06/22 21:28:43;;;;;;;8.05;2.90;;;;;;;;;;6147575;28;20158;-73
2021/06/22 21:31:45;;;;;;;9.00;2.80;;;;;;;;;;6137818;28;20504;-73
2021/06/22 21:34:50;;;;;;;7.60;3.38;;;;;;;;;;6144098;28;20079;-71
2021/06/22 21:37:55;;;;;;;13.13;3.47;;;;;;;;;;6138337;28;20047;-70
2021/06/22 21:40:58;;;;;;;12.35;3.28;;;;;;;;;;6144004;28;20473;-72
2021/06/22 21:44:09;;;;;;;6.13;3.10;;;;;;;;;;6146406;28;20411;-71
2021/06/22 21:47:13;;;;;;;7.57;2.58;;;;;;;;;;6141063;28;20044;-71
2021/06/22 21:53:51;;;;;;;7.65;2.85;;;;;;;;;;6061779;29;20047;-73
2021/06/22 21:56:56;;;;;;;21.20;3.40;;;;;;;;;;6145905;28;20055;-73
2021/06/22 22:00:01;;;;;;;16.95;3.90;;;;;;;;;;6137570;28;20048;-76
2021/06/22 22:03:04;;;;;;;8.90;3.25;;;;;;;;;;6134736;28;20051;-75
2021/06/22 22:13:47;;;;;;;12.05;3.70;;;;;;;;;;6086416;29;20072;-75
2021/06/22 22:16:49;;;;;;;10.23;3.03;;;;;;;;;;6087252;29;20067;-76
2021/06/22 22:27:25;;;;;;;7.75;3.90;;;;;;;;;;6110685;29;20052;-72
2021/06/22 22:30:28;;;;;;;6.95;3.50;;;;;;;;;;6112648;29;20063;-73
2021/06/22 22:33:30;;;;;;;;;;;;;;;;;;6116967;28;20085;-76
2021/06/22 22:36:32;;;;;;;8.50;3.88;;;;;;;;;;6120669;28;19932;-73
2021/06/22 22:39:34;;;;;;;10.60;3.78;;;;;;;;;;6111182;28;20116;-72
2021/06/22 22:42:36;;;;;;;5.60;3.55;;;;;;;;;;6103017;28;20059;-72
2021/06/22 22:45:39;;;;;;;9.30;3.55;;;;;;;;;;6111578;28;20039;-73
2021/06/22 22:48:41;;;;;;;;;;;;;;;;;;6113585;29;20059;-72
2021/06/22 22:51:42;;;;;;;9.70;3.88;;;;;;;;;;6117010;29;19929;-72
2021/06/22 22:54:44;;;;;;;11.82;3.75;;;;;;;;;;6123857;28;20063;-73
2021/06/22 22:57:48;;;;;;;6.22;3.63;;;;;;;;;;6140153;28;20051;-72
2021/06/22 23:00:51;;;;;;;7.90;3.40;;;;;;;;;;6137920;28;20066;-72
2021/06/22 23:03:53;;;;;;;6.82;3.60;;;;;;;;;;6139618;28;20175;-73
2021/06/22 23:06:55;;;;;;;9.05;3.60;;;;;;;;;;6137861;28;20045;-73
2021/06/22 23:13:26;;;;;;;8.93;3.87;;;;;;;;;;6137365;28;20079;-72
2021/06/22 23:16:30;;;;;;;8.55;3.70;;;;;;;;;;6138296;28;20471;-73
2021/06/22 23:19:32;;;;;;;7.63;3.50;;;;;;;;;;6137347;28;20048;-73
2021/06/22 23:22:34;;;;;;;6.15;3.60;;;;;;;;;;6139355;28;20074;-75
2021/06/22 23:25:41;;;;;;;15.50;4.50;;;;;;;;;;6135404;28;20502;-72
2021/06/22 23:28:44;;;;;;;9.93;4.00;;;;;;;;;;6144784;28;20042;-72
2021/06/22 23:31:47;;;;;;;7.30;3.20;;;;;;;;;;6142604;28;20109;-73
2021/06/22 23:34:49;;;;;;;;;;;;;;;;;;6136002;28;20102;-72
2021/06/22 23:37:51;;;;;;;8.20;3.80;;;;;;;;;;6138637;28;19929;-72
2021/06/22 23:40:53;;;;;;;15.30;3.38;;;;;;;;;;6135889;28;20059;-72
2021/06/22 23:43:55;;;;;;;4.68;2.95;;;;;;;;;;6140061;28;20066;-73
2021/06/22 23:46:59;;;;;;;6.10;2.92;;;;;;;;;;6139769;28;20050;-72
2021/06/22 23:50:03;;;;;;;7.22;3.08;;;;;;;;;;6140483;28;20051;-74
2021/06/22 23:53:07;;;;;;;6.30;3.08;;;;;;;;;;6129711;28;20050;-72
2021/06/22 23:56:47;;;;;;;6.22;3.15;;;;;;;;;;6136511;28;20086;-71
